STN weather

London Stansted Airport
London, England, United Kingdom

Public forecast

Using degrees Celsius for public forecast. Weather courtesy of forecast.io.

METAR (pilot weather report)

Retrieved 2017/09/25 07:20 UTC (0 seconds ago):

EGSS 250720Z 06004KT 040V130 2000 BR NSC 15/14 Q1019

TAF (pilot weather forecast)

Retrieved 2017/09/25 06:15 UTC (54 minutes ago):

TAF EGSS 250453Z 2506/2612 09006KT 3000 BR NSC TEMPO 2506/2509 6000 -RA BKN045 BECMG 2509/2512 CAVOK TEMPO 2512/2522 8000 PROB40 2522/2602 4000 BR BECMG 2602/2605 0700 FG BKN000 BECMG 2605/2609 7000 NSW BKN008 BECMG 2609/2612 9999 FEW012